Terminal Aerodrome Forecast
Issued by NWS

Home | Current Version | Previous Version | Text Only | Print | Product List | Glossary On
Versions: 1 2 3 4 5 6 7 8 9 10 11 12 13 14 15
808
FTUS46 KLOX 271123
TAFBUR
TAF
KBUR 271123Z 2712/2812 VRB03KT P6SM SCT200
     FM272100 17008KT P6SM BKN200
     FM280300 VRB03KT P6SM BKN200=

USA.gov is the U.S. government's official web portal to all federal, state and local government web resources and services.